美保飛行場の過去48時間の天気

美保飛行場 (Miho)

現在時刻: 7/17 18:46 JST (7/17 09:46 UTC) 以下の時間は現地時間です。

過去48時間のMETAR気象情報
時間 風向 風速(m/s) 視程 気温(℃) 湿度(%) 気圧(hPa) 天気現象
17 18:00 不定 2 10km以上 32 49 1010
17 17:00 西 5 10km以上 32 49 1010
17 16:00 西 4 10km以上 33 49 1010
17 15:00 西 3 10km以上 34 50 1010
17 14:00 西南西 3 10km以上 34 47 1010
17 13:00 東北東 3 10km以上 34 47 1011
17 12:00 北東 3 10km以上 34 50 1011
17 11:00 西南西 3 10km以上 33 53 1012
17 10:00 南西 3 10km以上 32 56 1012
17 09:00 南西 2 10km以上 30 62 1012
17 08:00 南南西 3 10km以上 28 74 1013
17 07:00 南南西 3 10km以上 27 79 1013
17 06:00 南西 2 10km以上 26 84 1012
17 05:00 西南西 3 10km以上 26 84 1012
17 04:00 南南西 2 10km以上 25 83 1012
17 03:00 2 10km以上 26 79 1012
17 02:00 南南西 2 10km以上 26 84 1012
17 01:00 2 10km以上 26 84 1012
17 00:00 不定 1 10km以上 27 74 1012
16 23:00 不定 1 10km以上 28 62 1012
16 22:00 東南東 2 10km以上 27 70 1012
16 21:00 東南東 2 10km以上 27 70 1012
16 20:00 南東 2 10km以上 27 70 1012
16 19:00 東北東 2 10km以上 29 62 1011
16 18:00 4 10km以上 29 62 1011
16 17:00 東南東 3 10km以上 31 52 1011
16 16:00 2 10km以上 33 49 1011
16 15:00 南西 3 10km以上 33 46 1011
16 14:00 南西 3 10km以上 34 47 1012
16 13:00 北北西 4 10km以上 34 47 1012
16 12:00 北東 4 10km以上 33 49 1012
16 11:00 東北東 3 10km以上 33 53 1012
16 10:00 北東 2 10km以上 32 49 1013
16 09:00 西南西 2 10km以上 30 59 1013
16 08:00 不定 1 10km以上 28 70 1013
16 07:00 西南西 2 10km以上 27 79 1013
16 06:00 南西 2 10km以上 26 79 1012
16 05:00 南西 2 10km以上 25 83 1012
RJOH 170900Z VRB04KT 9999 FEW035 BKN280 32/20 Q1010
RJOH 170800Z 26009KT 9999 FEW035 BKN280 32/20 Q1010
RJOH 170700Z 27007KT 240V300 9999 FEW035 BKN280 33/21 Q1010
RJOH 170600Z 26005KT 220V310 9999 FEW035 BKN280 34/22 Q1010
RJOH 170500Z 25005KT 200V290 9999 FEW035 BKN280 34/21 Q1010
RJOH 170400Z 06005KT 010V090 9999 FEW035 BKN280 34/21 Q1011
RJOH 170300Z 04005KT 360V080 9999 FEW035 BKN280 34/22 Q1011
RJOH 170200Z 25005KT 200V300 9999 FEW035 BKN280 33/22 Q1012
RJOH 170100Z 22005KT 190V260 9999 FEW035 BKN300 32/22 Q1012
RJOH 170000Z 22003KT 160V280 9999 SCT300 30/22 Q1012
RJOH 162300Z 21005KT 9999 SCT300 28/23 Q1013
RJOH 162200Z 20005KT 9999 FEW050 BKN300 27/23 Q1013
RJOH 162100Z 23004KT 9999 FEW050 BKN300 26/23 Q1012
RJOH 162000Z 24005KT 9999 FEW050 SCT/// 26/23 Q1012
RJOH 161900Z 20004KT 9999 FEW050 25/22 Q1012
RJOH 161800Z 19004KT 9999 FEW050 26/22 Q1012
RJOH 161700Z 20003KT 9999 FEW050 26/23 Q1012
RJOH 161600Z 18004KT 9999 FEW040 SCT050 26/23 Q1012
RJOH 161500Z VRB02KT 9999 FEW040 BKN050 27/22 Q1012
RJOH 161400Z VRB01KT 9999 FEW040 BKN050 28/20 Q1012
RJOH 161300Z 11003KT 080V190 9999 NSC 27/21 Q1012
RJOH 161200Z 11004KT 9999 FEW/// 27/21 Q1012
RJOH 161100Z 14003KT 110V170 9999 FEW035 27/21 Q1012
RJOH 161000Z 06004KT 9999 FEW035 29/21 Q1011
RJOH 160900Z 09008KT 9999 FEW035 29/21 Q1011
RJOH 160800Z 11006KT 9999 FEW035 31/20 Q1011
RJOH 160700Z 10004KT 080V140 9999 FEW035 33/21 Q1011
RJOH 160600Z 22006KT 180V260 9999 FEW035 33/20 Q1011
RJOH 160500Z 23006KT 190V280 9999 FEW035 34/21 Q1012
RJOH 160400Z 33008KT 290V050 9999 FEW030 34/21 Q1012
RJOH 160300Z 05007KT 9999 FEW015 33/21 Q1012
RJOH 160200Z 06005KT 9999 FEW030 33/22 Q1012
RJOH 160100Z 05004KT 360V090 9999 FEW030 32/20 Q1013
RJOH 160000Z 24003KT 170V290 9999 FEW015 30/21 Q1013
RJOH 152300Z VRB02KT 9999 FEW010 28/22 Q1013
RJOH 152200Z 25003KT 210V290 9999 FEW250 27/23 Q1013
RJOH 152100Z 22004KT 9999 FEW250 26/22 Q1012
RJOH 152000Z 22004KT 9999 FEW250 25/22 Q1012